Time;durP1;ratioP1;P1;durP2;ratioP2;P2;SDS_P1;SDS_P2;PMS_P1;PMS_P2;Temp;Humidity;BMP_temperature;BMP_pressure;BME280_temperature;BME280_humidity;BME280_pressure;Samples;Min_cycle;Max_cycle;Signal;HPM_P1;HPM_P2
2021/07/02 00:01:14;;;;;;;;;;;24.50;46.90;;;;;;1608719;72;1091;-58
2021/07/02 00:03:16;;;;;;;;;;;24.50;46.70;;;;;;1609548;72;790;-58
2021/07/02 00:05:18;;;;;;;;;;;24.50;46.70;;;;;;1610608;72;712;-58
2021/07/02 00:07:20;;;;;;;;;;;24.60;46.70;;;;;;1616377;72;724;-58
2021/07/02 00:09:22;;;;;;;;;;;24.60;46.60;;;;;;1626302;72;796;-58
2021/07/02 00:11:24;;;;;;;;;;;24.60;46.50;;;;;;1615798;72;1936;-58
2021/07/02 00:13:25;;;;;;;;;;;24.60;46.30;;;;;;1608271;72;794;-58
2021/07/02 00:15:27;;;;;;;;;;;24.50;46.30;;;;;;1589877;72;743;-58
2021/07/02 00:17:29;;;;;;;;;;;24.50;46.50;;;;;;1614353;72;748;-58
2021/07/02 00:19:33;;;;;;;;;;;24.60;46.40;;;;;;1601245;72;717;-58
2021/07/02 00:21:35;;;;;;;;;;;24.50;46.50;;;;;;1609951;72;1129;-58
2021/07/02 00:23:37;;;;;;;;;;;24.50;46.30;;;;;;1597329;72;776;-58
2021/07/02 00:25:38;;;;;;;;;;;24.50;46.50;;;;;;1596795;72;702;-58
2021/07/02 00:27:40;;;;;;;;;;;24.60;46.30;;;;;;1612518;72;754;-58
2021/07/02 00:29:42;;;;;;;;;;;24.60;46.30;;;;;;1603330;72;734;-58
2021/07/02 00:31:44;;;;;;;;;;;24.60;46.00;;;;;;1600833;72;1925;-58
2021/07/02 00:33:46;;;;;;;;;;;24.50;45.80;;;;;;1599415;72;642;-58
2021/07/02 00:35:48;;;;;;;;;;;24.50;45.70;;;;;;1606996;72;770;-58
2021/07/02 00:37:50;;;;;;;;;;;24.50;45.80;;;;;;1602641;72;826;-57
2021/07/02 00:39:52;;;;;;;;;;;24.50;45.70;;;;;;1610174;71;217718;-79
2021/07/02 00:41:54;;;;;;;;;;;24.50;45.60;;;;;;1594346;73;741;-77
2021/07/02 00:43:56;;;;;;;;;;;24.50;45.50;;;;;;1592669;73;696;-75
2021/07/02 00:45:58;;;;;;;;;;;24.50;45.40;;;;;;1603791;73;721;-74
2021/07/02 00:48:00;;;;;;;;;;;24.50;45.40;;;;;;1594813;73;1141;-74
2021/07/02 00:50:03;;;;;;;;;;;24.50;45.40;;;;;;1593927;73;734;-76
2021/07/02 00:52:06;;;;;;;;;;;24.50;45.50;;;;;;1607704;73;1938;-76
2021/07/02 00:54:08;;;;;;;;;;;24.50;45.40;;;;;;1602738;71;222413;-55
2021/07/02 00:56:10;;;;;;;;;;;24.50;45.40;;;;;;1570570;74;1209;-56
2021/07/02 00:58:12;;;;;;;;;;;24.50;45.50;;;;;;1598523;74;657;-58
2021/07/02 01:00:14;;;;;;;;;;;24.50;45.50;;;;;;1590710;73;782;-56
2021/07/02 01:02:16;;;;;;;;;;;24.50;45.60;;;;;;1583540;73;1164;-58
2021/07/02 01:04:18;;;;;;;;;;;24.50;45.50;;;;;;1585023;74;648;-56
2021/07/02 01:06:20;;;;;;;;;;;24.50;45.40;;;;;;1559948;74;846;-56
2021/07/02 01:08:22;;;;;;;;;;;24.50;45.40;;;;;;1578690;74;786;-58
2021/07/02 01:10:24;;;;;;;;;;;24.50;45.30;;;;;;1565012;74;775;-56
2021/07/02 01:12:26;;;;;;;;;;;24.50;45.20;;;;;;1575472;74;1946;-57
2021/07/02 01:14:28;;;;;;;;;;;24.50;45.20;;;;;;1567649;74;777;-57
2021/07/02 01:16:30;;;;;;;;;;;24.50;45.20;;;;;;1584033;74;762;-56
2021/07/02 01:18:32;;;;;;;;;;;24.50;45.30;;;;;;1578891;74;776;-59
2021/07/02 01:20:35;;;;;;;;;;;24.50;45.30;;;;;;1573305;74;817;-56
2021/07/02 01:22:37;;;;;;;;;;;24.50;45.30;;;;;;1577880;74;1076;-57
2021/07/02 01:24:39;;;;;;;;;;;24.50;45.20;;;;;;1542872;75;1265;-57
2021/07/02 01:26:40;;;;;;;;;;;24.50;45.20;;;;;;1574098;74;751;-58
2021/07/02 01:28:43;;;;;;;;;;;24.50;45.20;;;;;;1579616;74;822;-58
2021/07/02 01:30:45;;;;;;;;;;;24.50;45.20;;;;;;1567884;74;747;-55
2021/07/02 01:32:47;;;;;;;;;;;24.50;45.10;;;;;;1577428;74;1948;-58
2021/07/02 01:34:49;;;;;;;;;;;24.50;45.10;;;;;;1582960;74;749;-56
2021/07/02 01:36:51;;;;;;;;;;;24.50;45.00;;;;;;1572382;74;829;-55
2021/07/02 01:49:26;;;;;;;;;;;24.40;45.00;;;;;;1568069;74;1663;-57
2021/07/02 01:51:28;;;;;;;;;;;24.40;44.90;;;;;;1571613;74;1112;-57
2021/07/02 01:53:30;;;;;;;;;;;24.40;45.00;;;;;;1577006;74;1939;-58
2021/07/02 01:55:32;;;;;;;;;;;24.40;45.10;;;;;;1576028;74;821;-56
2021/07/02 01:57:33;;;;;;;;;;;24.50;45.20;;;;;;1571560;74;700;-53
2021/07/02 01:59:35;;;;;;;;;;;24.40;45.00;;;;;;1566694;74;770;-57
2021/07/02 02:01:37;;;;;;;;;;;24.50;44.90;;;;;;1582359;74;1167;-55
2021/07/02 02:03:39;;;;;;;;;;;24.40;44.80;;;;;;1577218;74;801;-56
2021/07/02 02:05:41;;;;;;;;;;;24.40;44.90;;;;;;1581766;74;736;-56
2021/07/02 02:07:43;;;;;;;;;;;24.40;44.80;;;;;;1565470;74;775;-58
2021/07/02 02:09:45;;;;;;;;;;;24.50;44.70;;;;;;1570408;74;736;-56
2021/07/02 02:11:46;;;;;;;;;;;24.40;44.60;;;;;;1572525;74;1176;-57
2021/07/02 02:13:48;;;;;;;;;;;24.50;44.70;;;;;;1571092;74;1949;-56
2021/07/02 02:15:50;;;;;;;;;;;24.50;44.70;;;;;;1577869;74;803;-56
2021/07/02 02:17:52;;;;;;;;;;;24.40;44.70;;;;;;1582884;74;669;-57
2021/07/02 02:19:54;;;;;;;;;;;24.50;44.70;;;;;;1576998;74;806;-56
2021/07/02 02:21:56;;;;;;;;;;;24.50;44.50;;;;;;1575029;74;1130;-58
2021/07/02 02:23:58;;;;;;;;;;;24.40;44.50;;;;;;1583847;74;744;-58
2021/07/02 02:26:00;;;;;;;;;;;24.50;44.70;;;;;;1575283;74;789;-57
2021/07/02 02:28:02;;;;;;;;;;;24.50;44.70;;;;;;1571743;74;707;-57
2021/07/02 02:30:05;;;;;;;;;;;24.50;44.70;;;;;;1577229;74;705;-56
2021/07/02 02:32:07;;;;;;;;;;;24.50;44.70;;;;;;1576673;74;1135;-56
2021/07/02 02:34:09;;;;;;;;;;;24.40;44.60;;;;;;1577321;74;1927;-56
2021/07/02 02:36:11;;;;;;;;;;;24.50;44.80;;;;;;1573118;74;787;-57
2021/07/02 02:38:12;;;;;;;;;;;24.40;44.50;;;;;;1579916;74;802;-57
2021/07/02 02:40:14;;;;;;;;;;;24.50;44.60;;;;;;1581917;74;726;-57
2021/07/02 02:42:16;;;;;;;;;;;24.40;44.50;;;;;;1580738;74;1103;-57
2021/07/02 02:44:18;;;;;;;;;;;24.50;44.60;;;;;;1571957;74;632;-56
2021/07/02 02:46:20;;;;;;;;;;;24.50;44.60;;;;;;1577161;74;812;-56
2021/07/02 02:48:22;;;;;;;;;;;24.50;44.60;;;;;;1570156;74;801;-56
2021/07/02 02:50:24;;;;;;;;;;;24.40;44.70;;;;;;1576042;74;745;-57
2021/07/02 02:52:26;;;;;;;;;;;24.50;44.80;;;;;;1585622;74;1932;-57
2021/07/02 02:54:28;;;;;;;;;;;24.50;44.80;;;;;;1568206;74;772;-57
2021/07/02 02:56:30;;;;;;;;;;;24.40;44.70;;;;;;1570489;74;795;-60
2021/07/02 02:58:32;;;;;;;;;;;24.40;44.70;;;;;;1570904;74;661;-56
2021/07/02 03:00:33;;;;;;;;;;;24.50;44.80;;;;;;1565981;74;698;-57
2021/07/02 03:02:35;;;;;;;;;;;24.50;45.00;;;;;;1579517;74;1147;-57
2021/07/02 03:04:37;;;;;;;;;;;24.50;45.00;;;;;;1562955;74;766;-56
2021/07/02 03:06:39;;;;;;;;;;;24.50;45.00;;;;;;1559793;74;745;-55
2021/07/02 03:08:41;;;;;;;;;;;24.50;45.20;;;;;;1573790;74;723;-57
2021/07/02 03:10:43;;;;;;;;;;;24.50;45.20;;;;;;1568353;74;757;-57
2021/07/02 03:12:45;;;;;;;;;;;24.40;45.20;;;;;;1567579;74;1966;-57
2021/07/02 03:14:49;;;;;;;;;;;24.50;45.20;;;;;;1562171;74;707;-60
2021/07/02 03:16:51;;;;;;;;;;;24.50;45.40;;;;;;1562162;74;704;-59
2021/07/02 03:18:53;;;;;;;;;;;24.40;45.20;;;;;;1558986;74;770;-57
2021/07/02 03:20:54;;;;;;;;;;;24.50;45.20;;;;;;1566583;74;746;-58
2021/07/02 03:22:56;;;;;;;;;;;24.50;45.20;;;;;;1565034;74;1116;-57
2021/07/02 03:24:58;;;;;;;;;;;24.50;45.10;;;;;;1562985;74;805;-57
2021/07/02 03:27:00;;;;;;;;;;;24.40;45.00;;;;;;1567530;74;822;-59
2021/07/02 03:29:02;;;;;;;;;;;24.50;45.10;;;;;;1572332;74;762;-57
2021/07/02 03:31:04;;;;;;;;;;;24.50;45.40;;;;;;1569544;74;1119;-57
2021/07/02 03:33:06;;;;;;;;;;;24.50;45.30;;;;;;1572134;74;1926;-59
2021/07/02 03:35:08;;;;;;;;;;;24.50;45.20;;;;;;1572339;74;704;-57
2021/07/02 03:37:11;;;;;;;;;;;24.50;45.20;;;;;;1582400;74;771;-58
2021/07/02 03:39:12;;;;;;;;;;;24.40;45.10;;;;;;1578723;74;735;-55
2021/07/02 03:43:26;;;;;;;;;;;24.50;45.20;;;;;;1568183;74;988;-58
2021/07/02 03:45:28;;;;;;;;;;;24.50;45.20;;;;;;1574159;74;766;-60
2021/07/02 03:47:30;;;;;;;;;;;24.50;45.20;;;;;;1582453;74;743;-58
2021/07/02 03:49:32;;;;;;;;;;;24.50;45.20;;;;;;1569757;74;668;-58
2021/07/02 03:51:34;;;;;;;;;;;24.50;45.20;;;;;;1574930;74;1127;-58
2021/07/02 03:53:36;;;;;;;;;;;24.50;45.20;;;;;;1573471;74;1914;-59
2021/07/02 03:55:38;;;;;;;;;;;24.50;45.20;;;;;;1578622;74;799;-60
2021/07/02 03:57:39;;;;;;;;;;;24.50;45.20;;;;;;1581898;74;766;-59
2021/07/02 03:59:45;;;;;;;;;;;24.50;45.10;;;;;;1573816;74;770;-59
2021/07/02 04:01:47;;;;;;;;;;;24.50;45.10;;;;;;1575420;74;1143;-59
2021/07/02 04:03:48;;;;;;;;;;;24.50;45.20;;;;;;1574733;74;952;-57
2021/07/02 04:05:50;;;;;;;;;;;24.50;45.20;;;;;;1572065;74;825;-58
2021/07/02 04:07:52;;;;;;;;;;;24.50;45.20;;;;;;1566216;74;787;-58
2021/07/02 04:09:54;;;;;;;;;;;24.50;45.10;;;;;;1572201;74;828;-60
2021/07/02 04:11:56;;;;;;;;;;;24.40;45.10;;;;;;1568629;74;1128;-61
2021/07/02 04:13:58;;;;;;;;;;;24.50;45.10;;;;;;1565654;74;1929;-61
2021/07/02 04:16:00;;;;;;;;;;;24.50;45.20;;;;;;1571065;74;825;-57
2021/07/02 04:18:01;;;;;;;;;;;24.50;45.20;;;;;;1575143;74;727;-59
2021/07/02 04:20:04;;;;;;;;;;;24.50;45.20;;;;;;1586725;74;812;-60
2021/07/02 04:22:06;;;;;;;;;;;24.50;45.30;;;;;;1581320;74;1133;-60
2021/07/02 04:24:08;;;;;;;;;;;24.40;45.20;;;;;;1576471;74;817;-58
2021/07/02 04:26:10;;;;;;;;;;;24.50;45.30;;;;;;1587493;74;676;-57
2021/07/02 04:28:12;;;;;;;;;;;24.50;45.40;;;;;;1573920;74;692;-58
2021/07/02 04:30:14;;;;;;;;;;;24.50;45.40;;;;;;1587171;74;820;-60
2021/07/02 04:32:16;;;;;;;;;;;24.50;45.40;;;;;;1572649;74;1128;-60
2021/07/02 04:34:18;;;;;;;;;;;24.50;45.50;;;;;;1576762;74;1930;-60
2021/07/02 04:36:20;;;;;;;;;;;24.50;45.40;;;;;;1578272;74;802;-59
2021/07/02 04:38:22;;;;;;;;;;;24.40;45.40;;;;;;1580902;74;739;-59
2021/07/02 04:40:24;;;;;;;;;;;24.50;45.50;;;;;;1572275;74;747;-59
2021/07/02 04:42:26;;;;;;;;;;;24.50;45.40;;;;;;1566993;74;1119;-59
2021/07/02 04:44:28;;;;;;;;;;;24.40;45.30;;;;;;1570833;74;775;-59
2021/07/02 04:46:30;;;;;;;;;;;24.40;45.30;;;;;;1566340;74;796;-58
2021/07/02 04:48:32;;;;;;;;;;;24.40;45.30;;;;;;1584022;74;776;-58
2021/07/02 04:50:33;;;;;;;;;;;24.40;45.40;;;;;;1576490;74;786;-58
2021/07/02 04:52:35;;;;;;;;;;;24.50;45.50;;;;;;1582938;74;1108;-56
2021/07/02 04:54:37;;;;;;;;;;;24.50;45.30;;;;;;1575291;74;1943;-57
2021/07/02 04:56:39;;;;;;;;;;;24.50;45.40;;;;;;1560337;74;831;-57
2021/07/02 04:58:42;;;;;;;;;;;24.50;45.40;;;;;;1571941;74;753;-60
2021/07/02 05:00:44;;;;;;;;;;;24.40;45.30;;;;;;1572076;74;736;-56
2021/07/02 05:02:46;;;;;;;;;;;24.40;45.30;;;;;;1570727;74;1133;-59
2021/07/02 05:04:48;;;;;;;;;;;24.40;45.30;;;;;;1575318;74;806;-58
2021/07/02 05:06:50;;;;;;;;;;;24.50;45.40;;;;;;1576186;74;714;-60
2021/07/02 05:08:51;;;;;;;;;;;24.50;45.30;;;;;;1564194;74;884;-60
2021/07/02 05:10:53;;;;;;;;;;;24.40;45.30;;;;;;1569288;74;691;-58
2021/07/02 05:12:55;;;;;;;;;;;24.50;45.40;;;;;;1575205;74;1062;-56
2021/07/02 05:14:57;;;;;;;;;;;24.40;45.30;;;;;;1564721;74;1942;-58
2021/07/02 05:17:00;;;;;;;;;;;24.40;45.30;;;;;;1574554;74;744;-57
2021/07/02 05:19:02;;;;;;;;;;;24.40;45.30;;;;;;1577881;74;662;-57
2021/07/02 05:21:03;;;;;;;;;;;24.50;45.40;;;;;;1578894;74;1170;-57
2021/07/02 05:23:05;;;;;;;;;;;24.40;45.30;;;;;;1565177;74;795;-56
2021/07/02 05:25:08;;;;;;;;;;;24.50;45.40;;;;;;1574741;74;814;-58
2021/07/02 05:27:09;;;;;;;;;;;24.40;45.30;;;;;;1581403;74;720;-60
2021/07/02 05:29:11;;;;;;;;;;;24.50;45.50;;;;;;1577205;74;671;-59
2021/07/02 05:31:15;;;;;;;;;;;24.40;45.50;;;;;;1574290;74;1134;-59
2021/07/02 05:33:17;;;;;;;;;;;24.40;45.50;;;;;;1584710;74;1919;-59
2021/07/02 05:35:19;;;;;;;;;;;24.50;45.80;;;;;;1576915;74;673;-57
2021/07/02 05:37:21;;;;;;;;;;;24.50;45.70;;;;;;1579686;74;744;-57
2021/07/02 05:39:23;;;;;;;;;;;24.50;45.50;;;;;;1568420;74;740;-57
2021/07/02 05:41:24;;;;;;;;;;;24.50;45.30;;;;;;1577220;74;1077;-57
2021/07/02 05:43:26;;;;;;;;;;;24.50;45.30;;;;;;1578561;74;762;-57
2021/07/02 05:45:28;;;;;;;;;;;24.50;45.50;;;;;;1574767;74;784;-58
2021/07/02 05:47:30;;;;;;;;;;;24.40;45.40;;;;;;1569818;74;763;-59
2021/07/02 05:49:32;;;;;;;;;;;24.50;45.50;;;;;;1568714;74;769;-59
2021/07/02 05:51:34;;;;;;;;;;;24.40;45.60;;;;;;1574500;74;1131;-56
2021/07/02 05:53:36;;;;;;;;;;;24.40;45.60;;;;;;1576770;74;1946;-57
2021/07/02 05:55:38;;;;;;;;;;;24.40;45.70;;;;;;1582769;74;787;-59
2021/07/02 05:57:40;;;;;;;;;;;24.40;45.70;;;;;;1581296;74;756;-57
2021/07/02 05:59:42;;;;;;;;;;;24.40;45.70;;;;;;1565029;74;780;-58
2021/07/02 06:01:44;;;;;;;;;;;24.40;45.80;;;;;;1557677;74;1136;-57
2021/07/02 06:03:46;;;;;;;;;;;24.40;45.80;;;;;;1563668;74;809;-58
2021/07/02 06:05:48;;;;;;;;;;;24.40;45.90;;;;;;1583247;74;784;-60
2021/07/02 06:07:51;;;;;;;;;;;24.40;46.00;;;;;;1569228;74;719;-58
2021/07/02 06:09:53;;;;;;;;;;;24.40;46.00;;;;;;1571034;74;808;-58
2021/07/02 06:11:55;;;;;;;;;;;24.40;46.00;;;;;;1583558;74;1163;-59
2021/07/02 06:13:57;;;;;;;;;;;24.30;46.10;;;;;;1565757;74;1939;-57
2021/07/02 06:15:59;;;;;;;;;;;24.30;46.10;;;;;;1574802;74;821;-56
2021/07/02 06:18:02;;;;;;;;;;;24.40;46.10;;;;;;1572826;74;804;-57
2021/07/02 06:20:05;;;;;;;;;;;24.40;46.10;;;;;;1573218;74;1957;-58
2021/07/02 06:22:07;;;;;;;;;;;24.40;46.10;;;;;;1576097;74;1136;-60
2021/07/02 06:24:08;;;;;;;;;;;24.40;46.10;;;;;;1574453;74;730;-57
2021/07/02 06:26:10;;;;;;;;;;;24.40;46.10;;;;;;1578384;74;711;-58
2021/07/02 06:28:12;;;;;;;;;;;24.40;46.10;;;;;;1578295;74;704;-58
2021/07/02 06:30:15;;;;;;;;;;;24.40;46.10;;;;;;1569805;74;739;-59
2021/07/02 06:32:17;;;;;;;;;;;24.40;46.20;;;;;;1580322;74;1158;-59
2021/07/02 06:34:18;;;;;;;;;;;24.30;46.10;;;;;;1572868;74;1929;-57
2021/07/02 06:36:20;;;;;;;;;;;24.40;46.00;;;;;;1572784;74;726;-57
2021/07/02 06:38:22;;;;;;;;;;;24.40;46.00;;;;;;1570250;74;804;-57
2021/07/02 06:40:24;;;;;;;;;;;24.50;45.80;;;;;;1586374;70;218502;-68
2021/07/02 06:42:26;;;;;;;;;;;24.60;45.70;;;;;;1605360;72;744;-68
2021/07/02 06:44:28;;;;;;;;;;;24.50;45.70;;;;;;1590959;72;748;-69
2021/07/02 06:46:33;;;;;;;;;;;24.60;45.60;;;;;;1594332;73;775;-69
2021/07/02 06:48:34;;;;;;;;;;;24.70;45.70;;;;;;1587059;72;1694;-68
2021/07/02 06:50:36;;;;;;;;;;;24.70;45.20;;;;;;1584141;73;1131;-66
2021/07/02 06:52:38;;;;;;;;;;;24.70;45.10;;;;;;1589457;72;725;-68
2021/07/02 06:54:40;;;;;;;;;;;24.70;45.10;;;;;;1596468;73;1946;-69
2021/07/02 06:57:00;;;;;;;;;;;24.70;44.90;;;;;;1597876;72;755;-69
2021/07/02 06:58:49;;;;;;;;;;;24.70;44.80;;;;;;1602057;73;1657;-72
2021/07/02 07:00:49;;;;;;;;;;;24.80;44.50;;;;;;1603677;72;1674;-66
2021/07/02 07:02:51;;;;;;;;;;;24.80;44.30;;;;;;1607153;72;753;-68
2021/07/02 07:04:53;;;;;;;;;;;24.80;44.00;;;;;;1610978;72;788;-68
2021/07/02 07:06:55;;;;;;;;;;;24.80;43.70;;;;;;1601988;72;773;-68
2021/07/02 07:08:57;;;;;;;;;;;24.80;43.60;;;;;;1615573;73;936;-69
2021/07/02 07:10:58;;;;;;;;;;;24.80;43.40;;;;;;1599695;72;1160;-68
2021/07/02 07:13:00;;;;;;;;;;;24.80;43.40;;;;;;1604276;72;727;-69
2021/07/02 07:15:03;;;;;;;;;;;24.80;43.40;;;;;;1608140;72;1900;-70
2021/07/02 07:17:09;;;;;;;;;;;24.80;43.30;;;;;;1595672;73;817;-71
2021/07/02 07:19:08;;;;;;;;;;;24.70;43.30;;;;;;1598579;72;1643;-68
2021/07/02 07:21:10;;;;;;;;;;;24.70;43.40;;;;;;1610328;72;1113;-68
2021/07/02 07:23:12;;;;;;;;;;;24.70;43.30;;;;;;1625043;72;752;-70
2021/07/02 07:25:15;;;;;;;;;;;24.60;43.10;;;;;;1611752;72;740;-68
2021/07/02 07:27:16;;;;;;;;;;;24.70;43.20;;;;;;1596531;72;790;-71
2021/07/02 07:29:18;;;;;;;;;;;24.60;43.10;;;;;;1605653;72;754;-69
2021/07/02 07:31:20;;;;;;;;;;;24.60;43.20;;;;;;1602141;73;690;-69
2021/07/02 07:33:22;;;;;;;;;;;24.60;43.10;;;;;;1596425;72;800;-69
2021/07/02 07:35:28;;;;;;;;;;;24.50;43.10;;;;;;1594200;72;1926;-69
2021/07/02 07:37:31;;;;;;;;;;;24.60;43.30;;;;;;1602281;73;1863;-69
2021/07/02 07:39:31;;;;;;;;;;;24.60;43.30;;;;;;1600863;72;1658;-69
2021/07/02 07:41:33;;;;;;;;;;;24.60;43.40;;;;;;1593612;72;791;-69
2021/07/02 07:43:35;;;;;;;;;;;24.60;43.50;;;;;;1586867;72;724;-66
2021/07/02 07:45:37;;;;;;;;;;;24.60;43.50;;;;;;1602302;72;865;-70
2021/07/02 07:47:39;;;;;;;;;;;24.60;43.60;;;;;;1596235;72;733;-68
2021/07/02 07:49:43;;;;;;;;;;;24.70;43.70;;;;;;1590379;72;1154;-69
2021/07/02 07:51:49;;;;;;;;;;;24.60;43.60;;;;;;1597806;73;1654;-69
2021/07/02 07:53:48;;;;;;;;;;;24.60;43.60;;;;;;1591440;72;1591;-71
2021/07/02 07:55:50;;;;;;;;;;;24.70;43.80;;;;;;1595496;73;1920;-69
2021/07/02 07:57:51;;;;;;;;;;;24.70;43.80;;;;;;1595603;72;735;-71
2021/07/02 07:59:53;;;;;;;;;;;24.70;43.80;;;;;;1603893;72;1096;-70
2021/07/02 08:01:55;;;;;;;;;;;24.70;43.40;;;;;;1600666;72;789;-70
2021/07/02 08:03:57;;;;;;;;;;;24.70;43.00;;;;;;1592908;72;792;-71
2021/07/02 08:05:59;;;;;;;;;;;24.60;42.80;;;;;;1591269;72;725;-72
2021/07/02 08:08:01;;;;;;;;;;;24.60;42.60;;;;;;1616423;73;689;-70
2021/07/02 08:10:04;;;;;;;;;;;24.60;42.50;;;;;;1599946;72;1139;-69
2021/07/02 08:12:06;;;;;;;;;;;24.60;42.50;;;;;;1591083;72;784;-69
2021/07/02 08:14:08;;;;;;;;;;;24.60;42.80;;;;;;1584500;73;854;-68
2021/07/02 08:16:10;;;;;;;;;;;24.60;42.90;;;;;;1591184;73;1892;-68
2021/07/02 08:18:12;;;;;;;;;;;24.70;43.20;;;;;;1596877;72;711;-69
2021/07/02 08:20:14;;;;;;;;;;;24.70;43.00;;;;;;1601641;72;1164;-71
2021/07/02 08:22:16;;;;;;;;;;;24.60;42.70;;;;;;1604997;72;792;-72
2021/07/02 08:24:18;;;;;;;;;;;24.70;42.90;;;;;;1611995;72;786;-69
2021/07/02 08:26:20;;;;;;;;;;;24.60;42.90;;;;;;1616800;72;747;-69
2021/07/02 08:30:42;;;;;;;;;;;24.60;43.10;;;;;;1597289;73;1637;-68
2021/07/02 08:32:44;;;;;;;;;;;24.50;43.10;;;;;;1596929;72;936;-68
2021/07/02 08:34:46;;;;;;;;;;;24.60;43.10;;;;;;1617960;72;1947;-69
2021/07/02 08:36:48;;;;;;;;;;;24.60;43.10;;;;;;1596665;73;747;-69
2021/07/02 08:38:50;;;;;;;;;;;24.60;43.20;;;;;;1610906;72;784;-70
2021/07/02 08:40:52;;;;;;;;;;;24.60;43.20;;;;;;1589041;73;1142;-71
2021/07/02 08:42:53;;;;;;;;;;;24.60;43.30;;;;;;1565689;73;1036;-71
2021/07/02 08:44:55;;;;;;;;;;;24.60;43.30;;;;;;1520815;75;781;-68
2021/07/02 08:46:59;;;;;;;;;;;24.50;43.40;;;;;;1526441;75;804;-69
2021/07/02 08:49:00;;;;;;;;;;;24.60;43.40;;;;;;1550266;74;793;-69
2021/07/02 08:51:02;;;;;;;;;;;24.50;43.40;;;;;;1555334;74;1178;-69
2021/07/02 08:53:05;;;;;;;;;;;24.50;43.50;;;;;;1554593;74;805;-71
2021/07/02 08:55:08;;;;;;;;;;;24.50;43.50;;;;;;1553334;74;1931;-68
2021/07/02 08:57:09;;;;;;;;;;;24.50;43.50;;;;;;1551152;74;766;-70
2021/07/02 08:59:11;;;;;;;;;;;24.60;43.50;;;;;;1555476;74;928;-69
2021/07/02 09:01:31;;;;;;;;;;;24.70;43.70;;;;;;1568828;74;1111;-69
2021/07/02 09:03:38;;;;;;;;;;;24.70;43.70;;;;;;1552251;74;744;-69
2021/07/02 09:05:38;;;;;;;;;;;24.70;43.70;;;;;;1569088;74;1599;-67
2021/07/02 09:07:43;;;;;;;;;;;24.70;43.60;;;;;;1551478;74;751;-68
2021/07/02 09:09:56;;;;;;;;;;;24.70;43.60;;;;;;1563684;74;1157;-70
2021/07/02 09:12:00;;;;;;;;;;;24.70;43.50;;;;;;1592512;73;672;-69
2021/07/02 09:14:03;;;;;;;;;;;24.70;43.20;;;;;;1593705;73;1796;-70
2021/07/02 09:16:05;;;;;;;;;;;24.60;43.00;;;;;;1584608;73;1917;-68
2021/07/02 09:18:07;;;;;;;;;;;24.70;43.00;;;;;;1567594;73;1257;-68
2021/07/02 09:20:14;;;;;;;;;;;24.70;43.10;;;;;;1591004;72;1156;-68
2021/07/02 09:22:21;;;;;;;;;;;24.70;43.10;;;;;;1578836;73;1645;-69
2021/07/02 09:24:39;;;;;;;;;;;24.80;43.10;;;;;;1580487;73;750;-68
2021/07/02 09:26:43;;;;;;;;;;;24.70;43.00;;;;;;1573809;73;914;-68
2021/07/02 09:28:44;;;;;;;;;;;24.80;43.00;;;;;;1570691;73;1621;-70
2021/07/02 09:30:47;;;;;;;;;;;24.70;42.90;;;;;;1580711;73;1143;-68
2021/07/02 09:32:49;;;;;;;;;;;24.70;42.80;;;;;;1588520;73;746;-68
2021/07/02 09:34:52;;;;;;;;;;;24.70;42.80;;;;;;1578765;73;1918;-69
2021/07/02 09:36:54;;;;;;;;;;;24.60;42.50;;;;;;1590185;73;795;-68
2021/07/02 09:38:55;;;;;;;;;;;24.70;42.60;;;;;;1578519;73;894;-68
2021/07/02 09:40:57;;;;;;;;;;;24.70;42.60;;;;;;1584395;72;1144;-69
2021/07/02 09:43:07;;;;;;;;;;;24.60;42.30;;;;;;1584910;73;781;-68
2021/07/02 09:45:10;;;;;;;;;;;24.50;42.30;;;;;;1582028;73;772;-68
2021/07/02 09:47:29;;;;;;;;;;;24.60;42.50;;;;;;1581112;73;1699;-68
2021/07/02 09:49:36;;;;;;;;;;;24.60;42.80;;;;;;1587162;72;1160;-69
2021/07/02 09:51:35;;;;;;;;;;;24.60;43.00;;;;;;1578950;73;1665;-69
2021/07/02 09:53:37;;;;;;;;;;;24.60;43.10;;;;;;1576048;73;754;-69
2021/07/02 09:55:51;;;;;;;;;;;24.70;43.20;;;;;;1575124;73;1929;-69
2021/07/02 09:58:03;;;;;;;;;;;24.60;43.10;;;;;;1584829;73;1120;-70
2021/07/02 10:00:06;;;;;;;;;;;24.70;43.10;;;;;;1580296;72;1136;-71
2021/07/02 10:02:17;;;;;;;;;;;24.70;43.00;;;;;;1578290;73;694;-71
2021/07/02 10:04:20;;;;;;;;;;;24.80;43.00;;;;;;1582857;73;660;-71
2021/07/02 10:06:22;;;;;;;;;;;24.70;43.10;;;;;;1583166;73;725;-70
2021/07/02 10:08:26;;;;;;;;;;;24.70;43.20;;;;;;1575179;73;760;-70
2021/07/02 10:10:28;;;;;;;;;;;24.60;43.10;;;;;;1575193;72;1800;-71
2021/07/02 10:12:30;;;;;;;;;;;24.70;43.40;;;;;;1578332;73;802;-70
2021/07/02 10:14:33;;;;;;;;;;;24.70;43.30;;;;;;1584621;73;754;-68
2021/07/02 10:16:35;;;;;;;;;;;24.70;43.20;;;;;;1574333;73;1906;-68
2021/07/02 10:18:40;;;;;;;;;;;24.80;43.10;;;;;;1573635;73;806;-71
2021/07/02 10:20:42;;;;;;;;;;;24.80;43.10;;;;;;1579314;73;1104;-69
2021/07/02 10:22:45;;;;;;;;;;;24.80;43.20;;;;;;1576592;73;713;-69
2021/07/02 10:24:48;;;;;;;;;;;24.90;43.20;;;;;;1584650;73;753;-68
2021/07/02 10:26:50;;;;;;;;;;;24.80;43.10;;;;;;1571972;73;836;-68
2021/07/02 10:28:52;;;;;;;;;;;24.90;43.30;;;;;;1575153;73;749;-72
2021/07/02 10:30:54;;;;;;;;;;;24.80;43.30;;;;;;1579545;72;1133;-67
2021/07/02 10:32:57;;;;;;;;;;;24.80;43.30;;;;;;1574330;73;806;-69
2021/07/02 10:34:59;;;;;;;;;;;24.80;43.10;;;;;;1580006;73;1112;-69
2021/07/02 10:37:01;;;;;;;;;;;24.80;43.20;;;;;;1584961;73;1918;-69
2021/07/02 10:39:03;;;;;;;;;;;24.80;43.10;;;;;;1581270;73;758;-69
2021/07/02 10:41:20;;;;;;;;;;;24.80;43.10;;;;;;1577246;72;1121;-69
2021/07/02 10:43:23;;;;;;;;;;;24.80;42.90;;;;;;1577746;73;755;-69
2021/07/02 10:45:24;;;;;;;;;;;24.80;42.60;;;;;;1575742;73;811;-70
2021/07/02 10:47:27;;;;;;;;;;;24.80;42.60;;;;;;1575664;73;709;-70
2021/07/02 10:49:36;;;;;;;;;;;24.70;42.80;;;;;;1582555;73;1147;-72
2021/07/02 10:51:42;;;;;;;;;;;24.80;42.80;;;;;;1574312;73;745;-68
2021/07/02 10:53:42;;;;;;;;;;;24.70;42.80;;;;;;1574450;73;1532;-69
2021/07/02 10:55:43;;;;;;;;;;;24.70;42.90;;;;;;1571980;73;1950;-71
2021/07/02 10:57:52;;;;;;;;;;;24.70;43.00;;;;;;1573269;73;784;-70
2021/07/02 10:59:57;;;;;;;;;;;24.80;43.00;;;;;;1580449;73;1175;-69
2021/07/02 11:02:10;;;;;;;;;;;24.70;42.90;;;;;;1575181;73;780;-68
2021/07/02 11:04:30;;;;;;;;;;;24.80;42.90;;;;;;1573395;73;739;-69
2021/07/02 11:06:38;;;;;;;;;;;24.70;42.20;;;;;;1571932;73;772;-68
2021/07/02 11:08:44;;;;;;;;;;;24.70;42.70;;;;;;1570572;73;751;-71
2021/07/02 11:10:56;;;;;;;;;;;24.70;42.80;;;;;;1575784;73;1134;-68
2021/07/02 11:12:58;;;;;;;;;;;24.70;42.90;;;;;;1574516;73;677;-68
2021/07/02 11:15:02;;;;;;;;;;;24.70;42.90;;;;;;1577851;73;745;-69
2021/07/02 11:17:23;;;;;;;;;;;24.70;42.90;;;;;;1605566;73;1908;-69
2021/07/02 11:19:28;;;;;;;;;;;24.70;42.80;;;;;;1586710;73;1129;-70
2021/07/02 11:21:29;;;;;;;;;;;24.70;42.80;;;;;;1574067;73;881;-69
2021/07/02 11:23:33;;;;;;;;;;;24.80;42.60;;;;;;1570003;73;815;-70
2021/07/02 11:25:52;;;;;;;;;;;24.80;42.50;;;;;;1572088;73;1729;-67
2021/07/02 11:28:07;;;;;;;;;;;24.80;42.50;;;;;;1573050;73;721;-70
2021/07/02 11:30:02;;;;;;;;;;;24.70;42.60;;;;;;1569872;72;1589;-69
2021/07/02 11:32:03;;;;;;;;;;;24.70;42.60;;;;;;1572801;73;1635;-70
2021/07/02 11:34:15;;;;;;;;;;;24.80;42.70;;;;;;1571899;73;788;-69
2021/07/02 11:36:17;;;;;;;;;;;24.70;42.70;;;;;;1571718;73;1909;-67
2021/07/02 11:38:20;;;;;;;;;;;24.70;42.80;;;;;;1571011;73;940;-68
2021/07/02 11:40:22;;;;;;;;;;;24.70;42.80;;;;;;1576831;73;1143;-68
2021/07/02 11:42:23;;;;;;;;;;;24.70;42.80;;;;;;1590421;73;807;-69
2021/07/02 11:44:25;;;;;;;;;;;24.70;42.80;;;;;;1586251;73;785;-69
2021/07/02 11:46:27;;;;;;;;;;;24.60;42.70;;;;;;1593679;73;788;-69
2021/07/02 11:48:31;;;;;;;;;;;24.60;42.70;;;;;;1577679;73;925;-69
2021/07/02 11:50:39;;;;;;;;;;;24.70;42.70;;;;;;1576360;72;1821;-72
2021/07/02 11:52:41;;;;;;;;;;;24.70;42.70;;;;;;1583475;73;725;-70
2021/07/02 11:54:50;;;;;;;;;;;24.60;42.50;;;;;;1580021;73;749;-72
2021/07/02 11:56:52;;;;;;;;;;;24.60;42.40;;;;;;1614200;73;1937;-70
2021/07/02 11:58:59;;;;;;;;;;;24.60;42.20;;;;;;1582560;73;744;-69
2021/07/02 12:01:02;;;;;;;;;;;24.70;41.80;;;;;;1601791;73;1127;-68
2021/07/02 12:03:04;;;;;;;;;;;24.70;42.10;;;;;;1597222;73;724;-69
2021/07/02 12:05:07;;;;;;;;;;;24.70;42.30;;;;;;1588448;73;732;-70
2021/07/02 12:07:09;;;;;;;;;;;24.60;42.10;;;;;;1596337;73;765;-70
2021/07/02 12:09:12;;;;;;;;;;;24.70;42.00;;;;;;1601905;73;736;-70
2021/07/02 12:11:14;;;;;;;;;;;24.70;41.90;;;;;;1599619;72;1093;-70
2021/07/02 12:13:16;;;;;;;;;;;24.60;41.80;;;;;;1607256;73;763;-70
2021/07/02 12:15:24;;;;;;;;;;;24.60;41.80;;;;;;1585647;73;752;-70
2021/07/02 12:17:26;;;;;;;;;;;24.60;41.80;;;;;;1584203;73;1922;-70
2021/07/02 12:19:29;;;;;;;;;;;24.60;41.50;;;;;;1596015;72;1151;-70
2021/07/02 12:21:31;;;;;;;;;;;24.60;41.80;;;;;;1616880;73;730;-70
2021/07/02 12:23:34;;;;;;;;;;;24.60;41.00;;;;;;1613008;73;743;-67
2021/07/02 12:25:36;;;;;;;;;;;24.60;41.60;;;;;;1602925;73;791;-67
2021/07/02 12:27:38;;;;;;;;;;;24.50;41.80;;;;;;1602657;73;768;-69